sensor_id;sensor_type;location;lat;lon;timestamp;pressure;altitude;pressure_sealevel;temperature;humidity
53546;BME280;39432;51.902;10.844;2023-09-12T00:01:24;99149.28;;;22.60;100.00
53546;BME280;39432;51.902;10.844;2023-09-12T00:04:14;99148.19;;;23.02;100.00
53546;BME280;39432;51.902;10.844;2023-09-12T00:07:07;99148.34;;;22.56;100.00
53546;BME280;39432;51.902;10.844;2023-09-12T00:09:57;99148.91;;;22.74;100.00
53546;BME280;39432;51.902;10.844;2023-09-12T00:12:48;99143.13;;;23.60;100.00
53546;BME280;39432;51.902;10.844;2023-09-12T00:15:38;99145.53;;;24.02;100.00
53546;BME280;39432;51.902;10.844;2023-09-12T00:18:28;99136.13;;;24.10;100.00
53546;BME280;39432;51.902;10.844;2023-09-12T00:21:19;99138.84;;;24.22;100.00
53546;BME280;39432;51.902;10.844;2023-09-12T00:24:11;99129.41;;;24.42;100.00
53546;BME280;39432;51.902;10.844;2023-09-12T00:27:02;99134.16;;;23.38;100.00
53546;BME280;39432;51.902;10.844;2023-09-12T00:29:53;99138.25;;;23.69;100.00
53546;BME280;39432;51.902;10.844;2023-09-12T00:32:45;99130.59;;;23.54;100.00
53546;BME280;39432;51.902;10.844;2023-09-12T00:35:36;99132.09;;;23.63;100.00
53546;BME280;39432;51.902;10.844;2023-09-12T00:38:26;99122.25;;;23.98;100.00
53546;BME280;39432;51.902;10.844;2023-09-12T00:41:19;99122.69;;;24.15;100.00
53546;BME280;39432;51.902;10.844;2023-09-12T00:44:10;99130.28;;;22.05;100.00
53546;BME280;39432;51.902;10.844;2023-09-12T00:47:01;99144.03;;;21.44;100.00
53546;BME280;39432;51.902;10.844;2023-09-12T00:49:53;99152.81;;;21.04;100.00
53546;BME280;39432;51.902;10.844;2023-09-12T00:52:45;99157.50;;;21.12;100.00
53546;BME280;39432;51.902;10.844;2023-09-12T00:55:37;99156.34;;;22.33;100.00
53546;BME280;39432;51.902;10.844;2023-09-12T00:58:33;99140.56;;;22.62;100.00
53546;BME280;39432;51.902;10.844;2023-09-12T01:01:23;99132.41;;;22.57;100.00
53546;BME280;39432;51.902;10.844;2023-09-12T01:04:14;99131.56;;;23.05;100.00
53546;BME280;39432;51.902;10.844;2023-09-12T01:07:21;99149.16;;;22.45;100.00
53546;BME280;39432;51.902;10.844;2023-09-12T01:10:12;99146.81;;;22.34;100.00
53546;BME280;39432;51.902;10.844;2023-09-12T01:13:03;99151.94;;;22.94;100.00
53546;BME280;39432;51.902;10.844;2023-09-12T01:15:56;99140.94;;;23.25;100.00
53546;BME280;39432;51.902;10.844;2023-09-12T01:18:46;99135.81;;;23.83;100.00
53546;BME280;39432;51.902;10.844;2023-09-12T01:21:46;99136.13;;;23.38;100.00
53546;BME280;39432;51.902;10.844;2023-09-12T01:25:05;99135.09;;;22.41;100.00
53546;BME280;39432;51.902;10.844;2023-09-12T01:28:04;99136.38;;;22.31;100.00
53546;BME280;39432;51.902;10.844;2023-09-12T01:30:58;99141.28;;;21.89;100.00
53546;BME280;39432;51.902;10.844;2023-09-12T01:33:55;99136.94;;;21.79;100.00
53546;BME280;39432;51.902;10.844;2023-09-12T01:36:45;99138.25;;;22.64;100.00
53546;BME280;39432;51.902;10.844;2023-09-12T01:39:35;99137.38;;;21.15;100.00
53546;BME280;39432;51.902;10.844;2023-09-12T01:42:30;99131.44;;;22.04;100.00
53546;BME280;39432;51.902;10.844;2023-09-12T01:45:23;99122.69;;;22.26;100.00
53546;BME280;39432;51.902;10.844;2023-09-12T01:48:18;99117.06;;;22.63;100.00
53546;BME280;39432;51.902;10.844;2023-09-12T01:51:09;99108.59;;;22.35;100.00
53546;BME280;39432;51.902;10.844;2023-09-12T01:54:01;99101.03;;;22.97;100.00
53546;BME280;39432;51.902;10.844;2023-09-12T01:56:54;99108.81;;;21.60;100.00
53546;BME280;39432;51.902;10.844;2023-09-12T01:59:45;99118.16;;;21.76;100.00
53546;BME280;39432;51.902;10.844;2023-09-12T02:02:38;99124.88;;;21.42;100.00
53546;BME280;39432;51.902;10.844;2023-09-12T02:05:30;99124.78;;;21.09;100.00
53546;BME280;39432;51.902;10.844;2023-09-12T02:08:20;99129.31;;;20.93;100.00
53546;BME280;39432;51.902;10.844;2023-09-12T02:11:11;99102.31;;;21.14;100.00
53546;BME280;39432;51.902;10.844;2023-09-12T02:14:01;99112.81;;;21.83;100.00
53546;BME280;39432;51.902;10.844;2023-09-12T02:16:51;99095.25;;;22.16;100.00
53546;BME280;39432;51.902;10.844;2023-09-12T02:19:46;99102.56;;;21.75;100.00
53546;BME280;39432;51.902;10.844;2023-09-12T02:22:37;99108.97;;;22.21;100.00
53546;BME280;39432;51.902;10.844;2023-09-12T02:25:27;99106.28;;;22.61;100.00
53546;BME280;39432;51.902;10.844;2023-09-12T02:28:18;99118.00;;;21.61;100.00
53546;BME280;39432;51.902;10.844;2023-09-12T02:31:10;99132.94;;;21.56;100.00
53546;BME280;39432;51.902;10.844;2023-09-12T02:34:00;99130.28;;;22.05;100.00
53546;BME280;39432;51.902;10.844;2023-09-12T02:36:53;99148.59;;;21.94;100.00
53546;BME280;39432;51.902;10.844;2023-09-12T02:39:43;99158.75;;;20.73;100.00
53546;BME280;39432;51.902;10.844;2023-09-12T02:42:34;99162.13;;;21.29;100.00
53546;BME280;39432;51.902;10.844;2023-09-12T02:45:25;99163.59;;;20.85;100.00
53546;BME280;39432;51.902;10.844;2023-09-12T02:48:15;99154.34;;;21.43;100.00
53546;BME280;39432;51.902;10.844;2023-09-12T02:51:06;99172.28;;;21.04;100.00
53546;BME280;39432;51.902;10.844;2023-09-12T02:53:59;99176.66;;;20.55;100.00
53546;BME280;39432;51.902;10.844;2023-09-12T02:56:49;99189.53;;;20.68;100.00
53546;BME280;39432;51.902;10.844;2023-09-12T02:59:40;99197.91;;;20.59;100.00
53546;BME280;39432;51.902;10.844;2023-09-12T03:02:30;99201.25;;;21.03;100.00
53546;BME280;39432;51.902;10.844;2023-09-12T03:05:21;99202.34;;;20.90;100.00
53546;BME280;39432;51.902;10.844;2023-09-12T03:08:11;99205.28;;;20.93;100.00
53546;BME280;39432;51.902;10.844;2023-09-12T03:11:04;99196.31;;;20.88;100.00
53546;BME280;39432;51.902;10.844;2023-09-12T03:13:55;99199.09;;;21.09;100.00
53546;BME280;39432;51.902;10.844;2023-09-12T03:16:46;99202.16;;;20.95;100.00
53546;BME280;39432;51.902;10.844;2023-09-12T03:19:36;99201.03;;;20.87;100.00
53546;BME280;39432;51.902;10.844;2023-09-12T03:22:26;99202.22;;;21.07;100.00
53546;BME280;39432;51.902;10.844;2023-09-12T03:25:17;99206.50;;;21.25;100.00
53546;BME280;39432;51.902;10.844;2023-09-12T03:28:09;99193.22;;;21.52;100.00
53546;BME280;39432;51.902;10.844;2023-09-12T03:31:03;99185.63;;;21.40;100.00
53546;BME280;39432;51.902;10.844;2023-09-12T03:33:55;99193.59;;;21.29;100.00
53546;BME280;39432;51.902;10.844;2023-09-12T03:36:46;99196.72;;;21.19;100.00
53546;BME280;39432;51.902;10.844;2023-09-12T03:39:36;99200.41;;;21.11;100.00
53546;BME280;39432;51.902;10.844;2023-09-12T03:42:26;99214.50;;;20.76;100.00
53546;BME280;39432;51.902;10.844;2023-09-12T03:45:31;99219.00;;;20.60;100.00
53546;BME280;39432;51.902;10.844;2023-09-12T03:48:22;99230.84;;;20.40;100.00
53546;BME280;39432;51.902;10.844;2023-09-12T03:51:12;99230.91;;;20.69;100.00
53546;BME280;39432;51.902;10.844;2023-09-12T03:54:03;99238.88;;;20.24;100.00
53546;BME280;39432;51.902;10.844;2023-09-12T03:56:53;99237.78;;;19.99;100.00
53546;BME280;39432;51.902;10.844;2023-09-12T03:59:43;99243.75;;;20.44;100.00
53546;BME280;39432;51.902;10.844;2023-09-12T04:02:36;99231.66;;;21.08;100.00
53546;BME280;39432;51.902;10.844;2023-09-12T04:05:27;99200.72;;;21.39;100.00
53546;BME280;39432;51.902;10.844;2023-09-12T04:08:17;99207.31;;;20.75;100.00
53546;BME280;39432;51.902;10.844;2023-09-12T04:11:07;99220.66;;;20.61;100.00
53546;BME280;39432;51.902;10.844;2023-09-12T04:13:58;99230.34;;;20.85;100.00
53546;BME280;39432;51.902;10.844;2023-09-12T04:16:49;99229.88;;;20.36;100.00
53546;BME280;39432;51.902;10.844;2023-09-12T04:19:42;99241.75;;;20.92;100.00
53546;BME280;39432;51.902;10.844;2023-09-12T04:22:32;99229.63;;;20.67;100.00
53546;BME280;39432;51.902;10.844;2023-09-12T04:25:23;99238.22;;;20.83;100.00
53546;BME280;39432;51.902;10.844;2023-09-12T04:28:14;99252.97;;;20.74;100.00
53546;BME280;39432;51.902;10.844;2023-09-12T04:31:05;99250.06;;;21.30;100.00
53546;BME280;39432;51.902;10.844;2023-09-12T04:33:55;99245.53;;;20.87;100.00
53546;BME280;39432;51.902;10.844;2023-09-12T04:36:48;99250.72;;;20.59;100.00
53546;BME280;39432;51.902;10.844;2023-09-12T04:39:38;99264.16;;;20.57;100.00
53546;BME280;39432;51.902;10.844;2023-09-12T04:42:28;99254.66;;;20.58;100.00
53546;BME280;39432;51.902;10.844;2023-09-12T04:45:19;99265.31;;;20.56;100.00
53546;BME280;39432;51.902;10.844;2023-09-12T04:48:09;99268.66;;;20.70;100.00
53546;BME280;39432;51.902;10.844;2023-09-12T04:50:59;99277.63;;;20.20;100.00
53546;BME280;39432;51.902;10.844;2023-09-12T04:53:52;99280.19;;;20.43;100.00
53546;BME280;39432;51.902;10.844;2023-09-12T04:56:43;99274.66;;;20.90;100.00
53546;BME280;39432;51.902;10.844;2023-09-12T04:59:34;99278.56;;;20.42;100.00
53546;BME280;39432;51.902;10.844;2023-09-12T05:02:25;99284.94;;;20.51;100.00
53546;BME280;39432;51.902;10.844;2023-09-12T05:05:15;99297.56;;;20.22;100.00
53546;BME280;39432;51.902;10.844;2023-09-12T05:08:06;99302.13;;;20.36;100.00
53546;BME280;39432;51.902;10.844;2023-09-12T05:10:59;99302.81;;;19.98;100.00
53546;BME280;39432;51.902;10.844;2023-09-12T05:13:50;99320.16;;;19.95;100.00
53546;BME280;39432;51.902;10.844;2023-09-12T05:16:40;99323.88;;;19.99;100.00
53546;BME280;39432;51.902;10.844;2023-09-12T05:19:31;99340.06;;;19.62;100.00
53546;BME280;39432;51.902;10.844;2023-09-12T05:22:21;99351.31;;;19.83;100.00
53546;BME280;39432;51.902;10.844;2023-09-12T05:25:11;99362.25;;;19.71;100.00
53546;BME280;39432;51.902;10.844;2023-09-12T05:28:05;99359.03;;;19.95;100.00
53546;BME280;39432;51.902;10.844;2023-09-12T05:30:55;99353.13;;;19.88;100.00
53546;BME280;39432;51.902;10.844;2023-09-12T05:33:46;99348.91;;;20.16;100.00
53546;BME280;39432;51.902;10.844;2023-09-12T05:36:36;99345.41;;;20.63;100.00
53546;BME280;39432;51.902;10.844;2023-09-12T05:39:27;99341.28;;;20.77;100.00
53546;BME280;39432;51.902;10.844;2023-09-12T05:42:17;99338.00;;;20.75;100.00
53546;BME280;39432;51.902;10.844;2023-09-12T05:45:12;99343.91;;;20.83;100.00
53546;BME280;39432;51.902;10.844;2023-09-12T05:48:03;99346.84;;;20.77;100.00
53546;BME280;39432;51.902;10.844;2023-09-12T05:50:55;99352.75;;;21.14;100.00
53546;BME280;39432;51.902;10.844;2023-09-12T05:53:45;99342.88;;;21.25;100.00
53546;BME280;39432;51.902;10.844;2023-09-12T05:56:35;99338.56;;;21.07;100.00
53546;BME280;39432;51.902;10.844;2023-09-12T05:59:25;99341.53;;;21.02;100.00
53546;BME280;39432;51.902;10.844;2023-09-12T06:02:18;99339.28;;;21.34;100.00
53546;BME280;39432;51.902;10.844;2023-09-12T06:05:09;99345.13;;;21.02;100.00
53546;BME280;39432;51.902;10.844;2023-09-12T06:07:59;99344.72;;;21.21;100.00
53546;BME280;39432;51.902;10.844;2023-09-12T06:10:51;99341.44;;;21.19;100.00
53546;BME280;39432;51.902;10.844;2023-09-12T06:13:42;99327.56;;;21.49;100.00
53546;BME280;39432;51.902;10.844;2023-09-12T06:16:32;99324.59;;;21.54;100.00
53546;BME280;39432;51.902;10.844;2023-09-12T06:19:25;99317.78;;;21.84;100.00
53546;BME280;39432;51.902;10.844;2023-09-12T06:22:15;99313.38;;;21.83;100.00
53546;BME280;39432;51.902;10.844;2023-09-12T06:25:07;99324.47;;;21.92;100.00
53546;BME280;39432;51.902;10.844;2023-09-12T06:27:57;99323.50;;;22.09;100.00
53546;BME280;39432;51.902;10.844;2023-09-12T06:30:48;99318.63;;;22.27;100.00
53546;BME280;39432;51.902;10.844;2023-09-12T06:33:38;99312.03;;;22.89;100.00
53546;BME280;39432;51.902;10.844;2023-09-12T06:36:31;99313.97;;;22.76;100.00
53546;BME280;39432;51.902;10.844;2023-09-12T06:39:22;99307.44;;;23.30;100.00
53546;BME280;39432;51.902;10.844;2023-09-12T06:42:12;99300.06;;;23.01;100.00
53546;BME280;39432;51.902;10.844;2023-09-12T06:45:03;99309.63;;;23.12;100.00
53546;BME280;39432;51.902;10.844;2023-09-12T06:47:54;99301.94;;;23.33;100.00
53546;BME280;39432;51.902;10.844;2023-09-12T06:50:44;99309.84;;;23.31;100.00
53546;BME280;39432;51.902;10.844;2023-09-12T06:53:41;99311.66;;;22.78;100.00
53546;BME280;39432;51.902;10.844;2023-09-12T06:56:32;99314.75;;;23.22;100.00
53546;BME280;39432;51.902;10.844;2023-09-12T06:59:25;99325.44;;;23.08;100.00
53546;BME280;39432;51.902;10.844;2023-09-12T07:02:15;99331.03;;;23.32;100.00
53546;BME280;39432;51.902;10.844;2023-09-12T07:05:06;99331.84;;;23.33;100.00
53546;BME280;39432;51.902;10.844;2023-09-12T07:07:56;99336.16;;;23.43;100.00
53546;BME280;39432;51.902;10.844;2023-09-12T07:10:49;99345.59;;;23.62;100.00
53546;BME280;39432;51.902;10.844;2023-09-12T07:13:42;99351.00;;;23.83;100.00
53546;BME280;39432;51.902;10.844;2023-09-12T07:16:32;99348.94;;;23.80;100.00
53546;BME280;39432;51.902;10.844;2023-09-12T07:19:23;99350.47;;;24.06;100.00
53546;BME280;39432;51.902;10.844;2023-09-12T07:22:13;99357.72;;;24.07;100.00
53546;BME280;39432;51.902;10.844;2023-09-12T07:25:04;99362.19;;;23.96;100.00
53546;BME280;39432;51.902;10.844;2023-09-12T07:27:59;99367.34;;;23.69;100.00
53546;BME280;39432;51.902;10.844;2023-09-12T07:30:51;99373.13;;;23.39;100.00
53546;BME280;39432;51.902;10.844;2023-09-12T07:33:41;99382.31;;;23.16;100.00
53546;BME280;39432;51.902;10.844;2023-09-12T07:36:32;99374.53;;;23.21;100.00
53546;BME280;39432;51.902;10.844;2023-09-12T07:39:22;99381.28;;;23.08;100.00
53546;BME280;39432;51.902;10.844;2023-09-12T07:42:13;99374.31;;;23.26;100.00
53546;BME280;39432;51.902;10.844;2023-09-12T07:45:07;99368.00;;;23.17;100.00
53546;BME280;39432;51.902;10.844;2023-09-12T07:47:58;99357.78;;;23.46;100.00
53546;BME280;39432;51.902;10.844;2023-09-12T07:50:48;99349.06;;;23.72;100.00
53546;BME280;39432;51.902;10.844;2023-09-12T07:53:39;99347.47;;;23.99;100.00
53546;BME280;39432;51.902;10.844;2023-09-12T07:56:29;99345.66;;;23.90;100.00
53546;BME280;39432;51.902;10.844;2023-09-12T07:59:20;99336.97;;;24.08;100.00
53546;BME280;39432;51.902;10.844;2023-09-12T08:02:12;99335.03;;;23.84;100.00
53546;BME280;39432;51.902;10.844;2023-09-12T08:05:03;99339.63;;;23.76;100.00
53546;BME280;39432;51.902;10.844;2023-09-12T08:07:55;99325.47;;;24.37;100.00
53546;BME280;39432;51.902;10.844;2023-09-12T08:10:45;99321.47;;;24.38;100.00
53546;BME280;39432;51.902;10.844;2023-09-12T08:13:36;99308.75;;;23.73;100.00
53546;BME280;39432;51.902;10.844;2023-09-12T08:16:26;99301.72;;;23.63;100.00
53546;BME280;39432;51.902;10.844;2023-09-12T08:19:21;99302.50;;;23.39;100.00
53546;BME280;39432;51.902;10.844;2023-09-12T08:22:12;99300.38;;;23.73;100.00
53546;BME280;39432;51.902;10.844;2023-09-12T08:25:03;99295.91;;;23.31;100.00
53546;BME280;39432;51.902;10.844;2023-09-12T08:27:54;99296.81;;;23.23;100.00
53546;BME280;39432;51.902;10.844;2023-09-12T08:30:45;99293.69;;;22.88;100.00
53546;BME280;39432;51.902;10.844;2023-09-12T08:33:35;99288.56;;;23.27;100.00
53546;BME280;39432;51.902;10.844;2023-09-12T08:36:28;99283.50;;;23.57;100.00
53546;BME280;39432;51.902;10.844;2023-09-12T08:39:26;99277.94;;;23.69;100.00
53546;BME280;39432;51.902;10.844;2023-09-12T08:42:17;99280.03;;;23.60;100.00
53546;BME280;39432;51.902;10.844;2023-09-12T08:45:11;99264.88;;;23.61;100.00
53546;BME280;39432;51.902;10.844;2023-09-12T08:48:04;99261.81;;;23.90;100.00
53546;BME280;39432;51.902;10.844;2023-09-12T08:50:56;99264.41;;;25.03;100.00
53546;BME280;39432;51.902;10.844;2023-09-12T08:53:50;99266.75;;;24.69;100.00
53546;BME280;39432;51.902;10.844;2023-09-12T08:56:42;99274.16;;;25.60;100.00
53546;BME280;39432;51.902;10.844;2023-09-12T08:59:33;99280.50;;;24.74;100.00
53546;BME280;39432;51.902;10.844;2023-09-12T09:02:24;99282.19;;;25.26;100.00
53546;BME280;39432;51.902;10.844;2023-09-12T09:05:16;99277.16;;;25.86;100.00
53546;BME280;39432;51.902;10.844;2023-09-12T09:08:09;99267.09;;;25.31;100.00
53546;BME280;39432;51.902;10.844;2023-09-12T09:11:02;99270.38;;;25.52;100.00
53546;BME280;39432;51.902;10.844;2023-09-12T09:13:54;99266.94;;;26.56;100.00
53546;BME280;39432;51.902;10.844;2023-09-12T09:16:44;99267.22;;;25.54;100.00
53546;BME280;39432;51.902;10.844;2023-09-12T09:19:40;99264.00;;;26.94;100.00
53546;BME280;39432;51.902;10.844;2023-09-12T09:22:32;99276.16;;;26.56;100.00
53546;BME280;39432;51.902;10.844;2023-09-12T09:25:22;99266.31;;;26.66;100.00
53546;BME280;39432;51.902;10.844;2023-09-12T09:28:19;99268.81;;;26.28;100.00
53546;BME280;39432;51.902;10.844;2023-09-12T09:31:11;99265.13;;;26.44;100.00
53546;BME280;39432;51.902;10.844;2023-09-12T09:34:02;99251.72;;;27.29;94.78
53546;BME280;39432;51.902;10.844;2023-09-12T09:36:53;99250.75;;;26.07;99.82
53546;BME280;39432;51.902;10.844;2023-09-12T09:39:44;99251.03;;;26.01;100.00
53546;BME280;39432;51.902;10.844;2023-09-12T09:42:35;99236.59;;;27.37;95.21
53546;BME280;39432;51.902;10.844;2023-09-12T09:45:28;99242.78;;;26.74;93.30
53546;BME280;39432;51.902;10.844;2023-09-12T09:48:20;99251.00;;;26.40;95.17
53546;BME280;39432;51.902;10.844;2023-09-12T09:51:13;99245.44;;;26.01;100.00
53546;BME280;39432;51.902;10.844;2023-09-12T09:54:07;99255.47;;;26.87;91.88
53546;BME280;39432;51.902;10.844;2023-09-12T09:56:57;99260.53;;;26.78;90.29
53546;BME280;39432;51.902;10.844;2023-09-12T09:59:49;99267.69;;;26.52;91.99
53546;BME280;39432;51.902;10.844;2023-09-12T10:02:43;99276.13;;;26.14;92.74
53546;BME280;39432;51.902;10.844;2023-09-12T10:05:37;99271.78;;;25.97;94.36
53546;BME280;39432;51.902;10.844;2023-09-12T10:08:27;99272.59;;;26.59;89.93
53546;BME280;39432;51.902;10.844;2023-09-12T10:11:22;99265.19;;;26.28;91.95
53546;BME280;39432;51.902;10.844;2023-09-12T10:14:15;99265.38;;;25.96;93.23
53546;BME280;39432;51.902;10.844;2023-09-12T10:17:05;99250.44;;;25.73;92.57
53546;BME280;39432;51.902;10.844;2023-09-12T10:20:02;99246.69;;;26.66;89.25
53546;BME280;39432;51.902;10.844;2023-09-12T10:23:03;99252.28;;;26.66;89.98
53546;BME280;39432;51.902;10.844;2023-09-12T10:25:58;99239.69;;;27.28;83.32
53546;BME280;39432;51.902;10.844;2023-09-12T10:28:50;99246.47;;;28.18;81.25
53546;BME280;39432;51.902;10.844;2023-09-12T10:31:41;99257.06;;;27.11;82.29
53546;BME280;39432;51.902;10.844;2023-09-12T10:34:32;99255.25;;;28.13;78.17
53546;BME280;39432;51.902;10.844;2023-09-12T10:37:26;99252.25;;;27.65;81.35
53546;BME280;39432;51.902;10.844;2023-09-12T10:40:16;99250.22;;;27.92;76.63
53546;BME280;39432;51.902;10.844;2023-09-12T10:43:09;99256.66;;;27.96;76.93
53546;BME280;39432;51.902;10.844;2023-09-12T10:46:01;99263.28;;;27.50;78.92
53546;BME280;39432;51.902;10.844;2023-09-12T10:48:53;99264.44;;;28.40;77.25
53546;BME280;39432;51.902;10.844;2023-09-12T10:51:44;99269.00;;;28.18;77.19
53546;BME280;39432;51.902;10.844;2023-09-12T10:54:39;99268.72;;;27.96;73.80
53546;BME280;39432;51.902;10.844;2023-09-12T10:57:29;99275.16;;;27.67;75.11
53546;BME280;39432;51.902;10.844;2023-09-12T11:00:20;99270.00;;;27.42;78.31
53546;BME280;39432;51.902;10.844;2023-09-12T11:03:37;99272.44;;;27.70;76.17
53546;BME280;39432;51.902;10.844;2023-09-12T11:06:30;99271.75;;;26.55;76.58
53546;BME280;39432;51.902;10.844;2023-09-12T11:09:22;99273.78;;;26.81;81.58
53546;BME280;39432;51.902;10.844;2023-09-12T11:12:34;99264.53;;;27.26;85.78
53546;BME280;39432;51.902;10.844;2023-09-12T11:15:26;99272.81;;;27.42;83.28
53546;BME280;39432;51.902;10.844;2023-09-12T11:18:18;99273.88;;;27.08;83.03
53546;BME280;39432;51.902;10.844;2023-09-12T11:21:09;99265.94;;;27.13;85.66
53546;BME280;39432;51.902;10.844;2023-09-12T11:23:59;99267.00;;;26.82;85.16
53546;BME280;39432;51.902;10.844;2023-09-12T11:26:58;99258.84;;;27.23;90.97
53546;BME280;39432;51.902;10.844;2023-09-12T11:29:51;99262.06;;;26.52;92.71
53546;BME280;39432;51.902;10.844;2023-09-12T11:32:44;99271.66;;;26.97;91.41
53546;BME280;39432;51.902;10.844;2023-09-12T11:35:37;99265.53;;;27.68;86.00
53546;BME280;39432;51.902;10.844;2023-09-12T11:38:31;99277.50;;;27.35;86.32
53546;BME280;39432;51.902;10.844;2023-09-12T11:41:39;99278.94;;;27.25;90.19
53546;BME280;39432;51.902;10.844;2023-09-12T11:44:30;99290.66;;;26.19;97.13
53546;BME280;39432;51.902;10.844;2023-09-12T11:47:24;99292.00;;;26.91;100.00
53546;BME280;39432;51.902;10.844;2023-09-12T11:50:28;99300.50;;;26.94;100.00
53546;BME280;39432;51.902;10.844;2023-09-12T11:53:20;99307.13;;;26.83;100.00
53546;BME280;39432;51.902;10.844;2023-09-12T11:56:13;99316.72;;;26.39;100.00
53546;BME280;39432;51.902;10.844;2023-09-12T11:59:03;99315.56;;;26.21;100.00
53546;BME280;39432;51.902;10.844;2023-09-12T12:01:53;99310.00;;;25.86;100.00
53546;BME280;39432;51.902;10.844;2023-09-12T12:04:47;99308.31;;;26.20;100.00
53546;BME280;39432;51.902;10.844;2023-09-12T12:07:37;99306.81;;;25.87;100.00
53546;BME280;39432;51.902;10.844;2023-09-12T12:10:30;99298.94;;;26.51;100.00
53546;BME280;39432;51.902;10.844;2023-09-12T12:13:21;99301.22;;;25.87;100.00
53546;BME280;39432;51.902;10.844;2023-09-12T12:16:14;99304.03;;;26.45;100.00
53546;BME280;39432;51.902;10.844;2023-09-12T12:19:05;99309.50;;;26.38;100.00
53546;BME280;39432;51.902;10.844;2023-09-12T12:21:58;99293.25;;;26.47;99.73
53546;BME280;39432;51.902;10.844;2023-09-12T12:24:49;99287.19;;;26.45;94.29
53546;BME280;39432;51.902;10.844;2023-09-12T12:27:39;99282.09;;;26.74;85.82
53546;BME280;39432;51.902;10.844;2023-09-12T12:30:31;99289.47;;;26.82;85.22
53546;BME280;39432;51.902;10.844;2023-09-12T12:33:22;99292.78;;;26.88;87.23
53546;BME280;39432;51.902;10.844;2023-09-12T12:36:32;99291.44;;;26.59;87.35
53546;BME280;39432;51.902;10.844;2023-09-12T12:39:44;99295.22;;;26.89;84.22
53546;BME280;39432;51.902;10.844;2023-09-12T12:42:37;99290.72;;;27.08;82.18
53546;BME280;39432;51.902;10.844;2023-09-12T12:45:52;99292.63;;;26.80;82.29
53546;BME280;39432;51.902;10.844;2023-09-12T12:48:43;99276.44;;;27.16;80.40
53546;BME280;39432;51.902;10.844;2023-09-12T12:51:35;99276.47;;;27.46;78.39
53546;BME280;39432;51.902;10.844;2023-09-12T12:54:25;99278.53;;;27.00;79.79
53546;BME280;39432;51.902;10.844;2023-09-12T12:57:20;99284.88;;;26.70;85.51
53546;BME280;39432;51.902;10.844;2023-09-12T13:00:13;99270.13;;;26.77;86.14
53546;BME280;39432;51.902;10.844;2023-09-12T13:03:05;99268.88;;;26.51;89.87
53546;BME280;39432;51.902;10.844;2023-09-12T13:05:55;99257.34;;;25.60;93.13
53546;BME280;39432;51.902;10.844;2023-09-12T13:08:47;99253.25;;;25.92;93.71
53546;BME280;39432;51.902;10.844;2023-09-12T13:11:38;99250.00;;;25.36;95.50
53546;BME280;39432;51.902;10.844;2023-09-12T13:14:32;99252.06;;;26.13;95.41
53546;BME280;39432;51.902;10.844;2023-09-12T13:17:23;99255.63;;;26.52;89.26
53546;BME280;39432;51.902;10.844;2023-09-12T13:20:13;99254.44;;;26.53;89.67
53546;BME280;39432;51.902;10.844;2023-09-12T13:23:04;99247.41;;;26.63;86.71
53546;BME280;39432;51.902;10.844;2023-09-12T13:25:55;99245.34;;;26.83;85.57
53546;BME280;39432;51.902;10.844;2023-09-12T13:28:45;99249.59;;;25.88;90.99
53546;BME280;39432;51.902;10.844;2023-09-12T13:31:38;99243.75;;;25.42;93.55
53546;BME280;39432;51.902;10.844;2023-09-12T13:34:28;99239.06;;;25.66;95.67
53546;BME280;39432;51.902;10.844;2023-09-12T13:37:19;99227.13;;;25.69;91.49
53546;BME280;39432;51.902;10.844;2023-09-12T13:40:09;99222.78;;;25.91;93.33
53546;BME280;39432;51.902;10.844;2023-09-12T13:43:00;99213.50;;;26.48;87.96
53546;BME280;39432;51.902;10.844;2023-09-12T13:45:50;99206.19;;;26.67;87.90
53546;BME280;39432;51.902;10.844;2023-09-12T13:48:43;99199.84;;;26.05;89.72
53546;BME280;39432;51.902;10.844;2023-09-12T13:51:36;99198.63;;;25.47;96.67
53546;BME280;39432;51.902;10.844;2023-09-12T13:54:26;99195.38;;;26.69;90.33
53546;BME280;39432;51.902;10.844;2023-09-12T13:57:16;99195.81;;;26.97;87.93
53546;BME280;39432;51.902;10.844;2023-09-12T14:00:08;99182.28;;;27.60;83.02
53546;BME280;39432;51.902;10.844;2023-09-12T14:02:59;99180.50;;;27.18;82.42
53546;BME280;39432;51.902;10.844;2023-09-12T14:05:52;99172.91;;;26.23;87.25
53546;BME280;39432;51.902;10.844;2023-09-12T14:08:43;99163.00;;;27.28;86.34
53546;BME280;39432;51.902;10.844;2023-09-12T14:11:34;99154.56;;;27.28;83.94
53546;BME280;39432;51.902;10.844;2023-09-12T14:14:25;99157.91;;;25.92;88.34
53546;BME280;39432;51.902;10.844;2023-09-12T14:17:15;99166.03;;;26.20;92.91
53546;BME280;39432;51.902;10.844;2023-09-12T14:20:08;99163.09;;;26.56;84.10
53546;BME280;39432;51.902;10.844;2023-09-12T14:23:05;99162.47;;;26.66;79.09
53546;BME280;39432;51.902;10.844;2023-09-12T14:25:55;99155.59;;;26.90;77.32
53546;BME280;39432;51.902;10.844;2023-09-12T14:28:46;99149.25;;;26.93;76.35
53546;BME280;39432;51.902;10.844;2023-09-12T14:31:38;99145.09;;;26.83;79.45
53546;BME280;39432;51.902;10.844;2023-09-12T14:34:39;99149.91;;;26.86;80.16
53546;BME280;39432;51.902;10.844;2023-09-12T14:37:29;99152.19;;;27.30;78.90
53546;BME280;39432;51.902;10.844;2023-09-12T14:40:23;99153.97;;;27.42;73.55
53546;BME280;39432;51.902;10.844;2023-09-12T14:43:14;99149.59;;;26.91;75.18
53546;BME280;39432;51.902;10.844;2023-09-12T14:46:04;99155.00;;;26.50;73.82
53546;BME280;39432;51.902;10.844;2023-09-12T14:48:56;99145.41;;;27.04;72.20
53546;BME280;39432;51.902;10.844;2023-09-12T14:51:49;99146.00;;;27.47;71.24